KWLD/WLD METAR and TAF weather

Enter ICAO airport designator
Station Type Date Time Source
KWLD METAR 2020/03/31 09:54 UTC NOAA

KWLD 310954Z AUTO 02004KT 10SM -RA BKN060 OVC075 10/10 A3008 RMK AO2 RAB53 SLP185 P0000 T01000100 $


Station Type Date Time Source
KWLD Decoded METAR 2020/03/31 09:54 UTC NOAA

STROTHER FIELD, KS, United States (KWLD) 37-10N 97-02W 350M
Mar 31, 2020 - 05:54 AM EDT / 2020.03.31 0954 UTC
Wind: from the NNE (020 degrees) at 5 MPH (4 KT):0
Visibility: 10 mile(s):0
Sky conditions: overcast
Weather: light rain
Precipitation last hour: A trace
Temperature: 50.0 F (10.0 C)
Dew Point: 50.0 F (10.0 C)
Relative Humidity: 100%
Pressure (altimeter): 30.08 in. Hg (1018 hPa)
ob: KWLD 310954Z AUTO 02004KT 10SM -RA BKN060 OVC075 10/10 A3008 RMK AO2 RAB53 SLP185 P0000 T01000100
cycle: 10

Station Type Date Time Source
KWLD TAF UTC NOAA

Error!

Example: see airport list